Time;durP1;ratioP1;P1;durP2;ratioP2;P2;SDS_P1;SDS_P2;PMS_P1;PMS_P2;Temp;Humidity;BMP_temperature;BMP_pressure;BME280_temperature;BME280_humidity;BME280_pressure;Samples;Min_cycle;Max_cycle;Signal;HPM_P1;HPM_P2
2023/11/28 00:01:38;;;;;;;0.30;0.20;;;;;;;4.36;84.13;94397.44;4883437;29;20057;-82
2023/11/28 00:04:07;;;;;;;0.20;0.20;;;;;;;4.37;83.88;94395.66;4880367;29;20144;-82
2023/11/28 00:06:35;;;;;;;0.22;0.10;;;;;;;4.38;83.64;94397.25;4877637;29;20075;-81
2023/11/28 00:09:03;;;;;;;0.10;0.10;;;;;;;4.38;83.64;94395.47;4876858;29;20080;-82
2023/11/28 00:11:31;;;;;;;0.57;0.20;;;;;;;4.39;83.83;94391.09;4880594;29;20054;-82
2023/11/28 00:13:59;;;;;;;0.20;0.20;;;;;;;4.41;83.85;94392.47;4880266;29;20053;-83
2023/11/28 00:16:27;;;;;;;0.45;0.20;;;;;;;4.41;83.76;94384.72;4881268;29;20069;-82
2023/11/28 00:18:55;;;;;;;0.38;0.20;;;;;;;4.43;83.76;94387.91;4878609;29;20054;-82
2023/11/28 00:21:25;;;;;;;0.10;0.10;;;;;;;4.43;84.03;94372.41;4877259;29;20064;-82
2023/11/28 00:23:52;;;;;;;0.17;0.08;;;;;;;4.43;84.10;94372.41;4878713;29;20053;-82
2023/11/28 00:26:20;;;;;;;0.20;0.20;;;;;;;4.42;83.67;94370.84;4880930;29;20034;-84
2023/11/28 00:28:48;;;;;;;0.10;0.10;;;;;;;4.41;83.23;94371.81;4879106;29;20072;-82
2023/11/28 00:31:15;;;;;;;0.15;0.15;;;;;;;4.43;83.60;94371.63;4881060;29;20057;-84
2023/11/28 00:33:43;;;;;;;0.10;0.10;;;;;;;4.45;83.46;94375.59;4876661;29;20053;-82
2023/11/28 00:36:11;;;;;;;0.57;0.30;;;;;;;4.45;83.46;94369.66;4862147;29;20129;-82
2023/11/28 00:38:40;;;;;;;0.17;0.10;;;;;;;4.47;84.70;94367.66;4861870;29;20096;-82
2023/11/28 00:41:09;;;;;;;0.20;0.20;;;;;;;4.48;84.59;94374.41;4861408;29;20088;-82
2023/11/28 00:43:37;;;;;;;0.15;0.15;;;;;;;4.48;83.87;94357.16;4860697;29;20085;-83
2023/11/28 00:46:05;;;;;;;0.20;0.20;;;;;;;4.49;83.91;94371.63;4861473;29;20054;-82
2023/11/28 00:48:33;;;;;;;0.15;0.10;;;;;;;4.50;84.56;94367.25;4862211;29;20054;-82
2023/11/28 00:51:01;;;;;;;0.20;0.20;;;;;;;4.50;84.13;94365.50;4859940;29;20058;-82
2023/11/28 00:53:29;;;;;;;0.30;0.10;;;;;;;4.51;84.00;94361.13;4861723;29;20109;-82
2023/11/28 00:55:58;;;;;;;0.43;0.10;;;;;;;4.50;84.43;94362.91;4862387;29;20050;-82
2023/11/28 00:58:26;;;;;;;0.08;0.08;;;;;;;4.50;83.02;94362.09;4862402;29;20057;-82
2023/11/28 01:00:54;;;;;;;0.50;0.30;;;;;;;4.48;83.29;94358.91;4860021;29;20053;-82
2023/11/28 01:03:22;;;;;;;0.10;0.10;;;;;;;4.46;83.26;94361.72;4860661;29;20061;-82
2023/11/28 01:05:50;;;;;;;0.28;0.17;;;;;;;4.47;83.48;94360.72;4860178;29;20050;-82
2023/11/28 01:08:17;;;;;;;0.05;0.05;;;;;;;4.45;83.80;94357.53;4861166;29;20077;-82
2023/11/28 01:10:45;;;;;;;0.20;0.15;;;;;;;4.45;83.29;94362.69;4860515;29;20069;-82
2023/11/28 01:13:14;;;;;;;0.20;0.20;;;;;;;4.43;83.43;94371.63;4860023;29;20058;-82
2023/11/28 01:15:42;;;;;;;0.20;0.20;;;;;;;4.42;83.40;94368.25;4860520;29;20065;-83
2023/11/28 01:18:10;;;;;;;0.20;0.20;;;;;;;4.43;83.54;94358.72;4862771;29;20070;-83
2023/11/28 01:20:38;;;;;;;0.22;0.20;;;;;;;4.44;84.03;94360.31;4862347;29;20046;-82
2023/11/28 01:23:06;;;;;;;0.15;0.15;;;;;;;4.43;83.75;94363.88;4860740;29;20050;-82
2023/11/28 01:25:33;;;;;;;0.20;0.20;;;;;;;4.42;83.42;94359.72;4862960;29;20054;-83
2023/11/28 01:28:01;;;;;;;0.95;0.40;;;;;;;4.42;83.95;94362.31;4862527;29;20071;-82
2023/11/28 01:30:30;;;;;;;0.28;0.28;;;;;;;4.43;84.48;94356.94;4860770;29;20062;-82
2023/11/28 01:32:58;;;;;;;0.40;0.22;;;;;;;4.44;84.96;94355.97;4861695;29;20092;-83
2023/11/28 01:35:26;;;;;;;0.20;0.20;;;;;;;4.44;84.34;94355.97;4877732;29;20082;-82
2023/11/28 01:37:53;;;;;;;0.35;0.35;;;;;;;4.45;84.56;94356.75;4880938;29;20048;-83
2023/11/28 01:40:25;;;;;;;0.30;0.20;;;;;;;4.46;84.33;94351.41;4881483;29;20121;-82
2023/11/28 01:42:52;;;;;;;0.88;0.17;;;;;;;4.45;84.34;94344.63;4881564;29;20096;-82
2023/11/28 01:45:22;;;;;;;0.40;0.32;;;;;;;4.44;83.61;94347.41;4878832;29;20108;-83
2023/11/28 01:47:52;;;;;;;0.10;0.10;;;;;;;4.43;83.95;94346.59;4880685;29;20082;-82
2023/11/28 01:50:21;;;;;;;0.30;0.22;;;;;;;4.45;84.45;94344.63;4881417;29;20041;-82
2023/11/28 01:52:50;;;;;;;0.55;0.30;;;;;;;4.46;85.03;94341.06;4881011;29;20185;-83
2023/11/28 01:55:19;;;;;;;0.20;0.20;;;;;;;4.48;84.55;94344.25;4879481;29;20054;-82
2023/11/28 01:57:48;;;;;;;0.88;0.30;;;;;;;4.49;84.18;94345.03;4881068;29;20117;-82
2023/11/28 02:00:17;;;;;;;0.52;0.20;;;;;;;4.48;84.20;94344.25;4880565;29;20060;-82
2023/11/28 02:02:45;;;;;;;0.40;0.20;;;;;;;4.48;84.09;94333.91;4881244;29;20066;-82
2023/11/28 02:05:18;;;;;;;0.10;0.10;;;;;;;4.49;84.59;94332.91;4879684;29;20078;-82
2023/11/28 02:07:46;;;;;;;0.45;0.45;;;;;;;4.50;84.59;94337.09;4880398;29;20057;-84
2023/11/28 02:10:14;;;;;;;0.60;0.30;;;;;;;4.53;84.85;94326.34;4880830;29;20067;-83
2023/11/28 02:12:43;;;;;;;0.10;0.10;;;;;;;4.54;84.67;94327.94;4881069;29;20081;-82
2023/11/28 02:15:11;;;;;;;0.50;0.20;;;;;;;4.57;84.65;94333.69;4879986;29;20053;-82
2023/11/28 02:17:38;;;;;;;0.40;0.35;;;;;;;4.57;84.29;94319.03;4878784;29;20090;-82
2023/11/28 02:20:08;;;;;;;0.10;0.10;;;;;;;4.58;84.85;94324.97;4881123;29;20049;-82
2023/11/28 02:22:37;;;;;;;0.28;0.25;;;;;;;4.61;85.40;94324.56;4878646;29;20050;-82
2023/11/28 02:25:06;;;;;;;0.10;0.10;;;;;;;4.62;85.20;94319.19;4879748;29;20050;-82
2023/11/28 02:27:35;;;;;;;0.30;0.30;;;;;;;4.64;85.51;94311.25;4880012;29;20049;-82
2023/11/28 02:30:04;;;;;;;0.38;0.35;;;;;;;4.66;85.19;94314.44;4878984;29;20073;-82
2023/11/28 02:32:31;;;;;;;0.50;0.28;;;;;;;4.67;85.20;94303.09;4881745;29;20061;-82
2023/11/28 02:34:59;;;;;;;1.55;0.40;;;;;;;4.70;85.65;94313.03;4868840;29;20054;-82
2023/11/28 02:37:44;;;;;;;0.20;0.20;;;;;;;4.71;85.75;94299.13;4866005;29;20064;-82
2023/11/28 02:40:12;;;;;;;0.50;0.50;;;;;;;4.72;85.25;94300.69;4865752;29;20072;-82
2023/11/28 02:42:41;;;;;;;0.45;0.25;;;;;;;4.72;85.35;94292.94;4864337;29;20054;-82
2023/11/28 02:45:10;;;;;;;0.25;0.25;;;;;;;4.73;85.05;94290.19;4863726;29;20081;-82
2023/11/28 02:47:37;;;;;;;0.30;0.20;;;;;;;4.74;85.00;94285.78;4863678;29;20074;-82
2023/11/28 02:50:06;;;;;;;0.20;0.20;;;;;;;4.75;85.37;94288.19;4864847;29;20505;-83
2023/11/28 02:52:34;;;;;;;0.80;0.50;;;;;;;4.79;86.05;94283.41;4864468;29;20037;-82
2023/11/28 02:55:02;;;;;;;0.10;0.10;;;;;;;4.80;85.68;94276.47;4866033;29;20452;-82
2023/11/28 02:57:30;;;;;;;0.40;0.35;;;;;;;4.81;85.17;94272.88;4866380;29;20151;-81
2023/11/28 02:59:59;;;;;;;0.28;0.28;;;;;;;4.82;85.52;94271.88;4864585;29;20065;-82
2023/11/28 03:02:30;;;;;;;0.30;0.30;;;;;;;4.84;85.50;94269.91;4865288;29;20058;-82
2023/11/28 03:04:58;;;;;;;0.57;0.20;;;;;;;4.86;85.59;94263.53;4864262;29;20054;-82
2023/11/28 03:07:26;;;;;;;0.22;0.22;;;;;;;4.86;85.75;94260.94;4864206;29;20121;-82
2023/11/28 03:09:53;;;;;;;0.57;0.28;;;;;;;4.89;86.00;94257.94;4864462;29;20057;-82
2023/11/28 03:12:21;;;;;;;0.30;0.20;;;;;;;4.90;86.50;94256.16;4864589;29;20082;-82
2023/11/28 03:14:49;;;;;;;0.30;0.30;;;;;;;4.90;86.42;94256.97;4864245;29;20085;-82
2023/11/28 03:17:18;;;;;;;0.65;0.30;;;;;;;4.94;86.67;94259.91;4864615;29;20060;-82
2023/11/28 03:19:46;;;;;;;0.22;0.22;;;;;;;4.93;86.33;94259.13;4866334;29;20114;-82
2023/11/28 03:22:14;;;;;;;0.20;0.20;;;;;;;4.92;85.56;94257.56;4864206;29;20080;-82
2023/11/28 03:24:43;;;;;;;0.30;0.30;;;;;;;4.94;86.22;94260.72;4865095;29;20061;-82
2023/11/28 03:27:12;;;;;;;0.77;0.25;;;;;;;4.97;86.27;94258.72;4864810;29;20050;-82
2023/11/28 03:29:40;;;;;;;0.90;0.10;;;;;;;4.98;86.18;94255.91;4864336;29;20090;-82
2023/11/28 03:32:08;;;;;;;0.20;0.20;;;;;;;4.98;85.59;94255.13;4865266;29;20053;-82
2023/11/28 03:34:39;;;;;;;0.30;0.30;;;;;;;4.98;85.60;94247.38;4876425;29;20041;-82
2023/11/28 03:37:07;;;;;;;0.55;0.22;;;;;;;5.00;85.79;94247.97;4881652;29;20133;-82
2023/11/28 03:39:35;;;;;;;0.47;0.43;;;;;;;5.02;85.78;94245.97;4882597;29;20087;-82
2023/11/28 03:42:02;;;;;;;0.20;0.15;;;;;;;5.02;85.99;94251.16;4882627;29;20068;-82
2023/11/28 03:44:30;;;;;;;0.30;0.30;;;;;;;5.01;85.33;94259.88;4883293;29;20049;-82
2023/11/28 03:46:58;;;;;;;0.10;0.10;;;;;;;5.00;85.38;94260.91;4883427;29;20054;-82
2023/11/28 03:49:26;;;;;;;0.30;0.30;;;;;;;5.00;85.29;94264.25;4881172;29;20049;-82
2023/11/28 03:51:56;;;;;;;0.47;0.40;;;;;;;5.00;84.70;94263.47;4882960;29;20049;-82
2023/11/28 03:54:23;;;;;;;1.33;0.20;;;;;;;4.99;84.35;94267.84;4872898;29;20084;-82
2023/11/28 03:56:51;;;;;;;0.20;0.20;;;;;;;4.97;84.97;94258.72;4863959;29;20053;-82
2023/11/28 03:59:19;;;;;;;0.10;0.10;;;;;;;4.97;85.18;94250.97;4865124;29;20234;-82
2023/11/28 04:01:46;;;;;;;0.10;0.10;;;;;;;4.97;84.99;94248.41;4864843;29;20042;-82
2023/11/28 04:04:14;;;;;;;0.17;0.17;;;;;;;4.95;84.55;94240.84;4863485;29;20061;-82
2023/11/28 04:06:42;;;;;;;0.60;0.30;;;;;;;4.95;84.64;94233.88;4863754;29;20046;-82
2023/11/28 04:09:12;;;;;;;0.70;0.30;;;;;;;4.97;84.68;94230.31;4863282;29;20045;-82
2023/11/28 04:11:40;;;;;;;0.93;0.40;;;;;;;4.97;84.83;94233.69;4862959;29;20079;-82
2023/11/28 04:14:07;;;;;;;0.10;0.10;;;;;;;4.98;85.33;94232.66;4863886;29;20058;-82
2023/11/28 04:16:36;;;;;;;0.22;0.22;;;;;;;4.98;84.99;94227.50;4863558;29;20054;-83
2023/11/28 04:19:04;;;;;;;0.20;0.10;;;;;;;4.95;84.52;94223.53;4862826;29;20057;-82
2023/11/28 04:21:32;;;;;;;1.15;0.40;;;;;;;4.99;84.57;94230.91;4864696;29;20091;-82
2023/11/28 04:24:00;;;;;;;0.73;0.38;;;;;;;5.00;85.67;94224.72;4863557;29;20061;-82
2023/11/28 04:26:29;;;;;;;1.48;0.50;;;;;;;5.00;85.71;94222.94;4862434;29;20344;-82
2023/11/28 04:28:57;;;;;;;0.15;0.15;;;;;;;5.02;85.56;94230.47;4862823;29;20053;-82
2023/11/28 04:31:25;;;;;;;0.30;0.30;;;;;;;5.02;85.62;94230.47;4863942;29;20041;-82
2023/11/28 04:33:53;;;;;;;0.47;0.40;;;;;;;5.04;86.18;94234.44;4864588;29;20054;-82
2023/11/28 04:36:21;;;;;;;0.70;0.60;;;;;;;5.04;85.81;94228.47;4863323;29;20065;-82
2023/11/28 04:38:48;;;;;;;0.20;0.20;;;;;;;5.04;85.46;94228.47;4864372;29;20064;-81
2023/11/28 04:41:16;;;;;;;0.20;0.20;;;;;;;5.03;84.96;94226.88;4863963;29;20105;-82
2023/11/28 04:43:45;;;;;;;1.50;0.50;;;;;;;5.00;84.85;94233.25;4863323;29;20064;-82
2023/11/28 04:46:13;;;;;;;0.50;0.45;;;;;;;4.99;85.06;94225.72;4864266;29;20110;-82
2023/11/28 04:48:41;;;;;;;0.75;0.30;;;;;;;4.99;85.34;94225.72;4863913;29;20050;-82
2023/11/28 04:51:09;;;;;;;0.20;0.20;;;;;;;4.98;85.18;94219.75;4863871;29;20091;-82
2023/11/28 04:53:37;;;;;;;0.30;0.30;;;;;;;4.94;84.59;94216.81;4868239;29;20042;-83
2023/11/28 04:56:06;;;;;;;0.47;0.20;;;;;;;4.93;84.42;94225.53;4882117;29;20112;-82
2023/11/28 04:58:35;;;;;;;0.40;0.40;;;;;;;4.93;84.45;94222.16;4882777;29;20126;-82
2023/11/28 05:01:05;;;;;;;0.40;0.30;;;;;;;4.90;84.11;94218.22;4883002;29;20053;-82
2023/11/28 05:03:33;;;;;;;0.70;0.30;;;;;;;4.89;84.09;94205.50;4883097;29;20082;-82
2023/11/28 05:06:01;;;;;;;0.25;0.25;;;;;;;4.88;84.41;94215.03;4882284;29;20102;-83
2023/11/28 05:08:29;;;;;;;0.77;0.20;;;;;;;4.87;84.69;94208.25;4881225;29;20045;-82
2023/11/28 05:10:58;;;;;;;0.13;0.13;;;;;;;4.88;84.26;94214.25;4882801;29;20075;-82
2023/11/28 05:13:26;;;;;;;0.20;0.20;;;;;;;4.88;84.16;94214.25;4882463;29;20050;-82
2023/11/28 05:15:53;;;;;;;0.20;0.20;;;;;;;4.87;84.23;94213.44;4881399;29;20523;-82
2023/11/28 05:18:23;;;;;;;0.10;0.10;;;;;;;4.90;84.36;94214.84;4881583;29;20061;-82
2023/11/28 05:20:51;;;;;;;0.10;0.10;;;;;;;4.91;84.92;94212.03;4881064;29;20049;-82
2023/11/28 05:23:18;;;;;;;0.40;0.30;;;;;;;4.91;84.60;94219.00;4881799;29;20058;-82
2023/11/28 05:25:47;;;;;;;0.65;0.50;;;;;;;4.92;84.75;94226.56;4882474;29;20064;-82
2023/11/28 05:28:15;;;;;;;0.40;0.40;;;;;;;4.92;84.61;94223.97;4883636;29;20049;-82
2023/11/28 05:30:44;;;;;;;1.73;0.90;;;;;;;4.93;84.78;94222.16;4883203;29;20049;-82
2023/11/28 05:33:12;;;;;;;5.88;2.30;;;;;;;4.92;84.91;94221.38;4883105;29;20037;-82
2023/11/28 05:35:41;;;;;;;8.57;4.10;;;;;;;4.92;85.50;94230.94;4882439;29;20053;-82
2023/11/28 05:38:09;;;;;;;6.15;2.90;;;;;;;4.93;84.96;94222.94;4881440;29;20065;-82
2023/11/28 05:40:37;;;;;;;3.30;2.28;;;;;;;4.90;84.27;94220.78;4881765;29;20057;-82
2023/11/28 05:43:05;;;;;;;5.30;1.35;;;;;;;4.87;84.62;94221.19;4883400;29;20058;-82
2023/11/28 05:45:33;;;;;;;2.15;1.60;;;;;;;4.87;85.26;94223.75;4882100;29;20068;-82
2023/11/28 05:48:02;;;;;;;3.80;1.80;;;;;;;4.89;85.12;94223.56;4881279;29;20057;-82
2023/11/28 05:50:29;;;;;;;2.13;1.80;;;;;;;4.91;85.04;94231.91;4881158;29;20045;-82
2023/11/28 05:53:00;;;;;;;1.50;1.40;;;;;;;4.92;85.23;94236.09;4882657;29;20034;-83
2023/11/28 05:55:28;;;;;;;2.80;1.60;;;;;;;4.91;85.40;94237.88;4866260;29;20042;-82
2023/11/28 05:57:55;;;;;;;1.08;0.75;;;;;;;4.93;85.44;94237.66;4871495;29;20060;-82
2023/11/28 06:00:23;;;;;;;0.77;0.77;;;;;;;4.97;85.31;94243.22;4875403;29;20054;-82
2023/11/28 06:02:51;;;;;;;0.85;0.63;;;;;;;4.96;85.30;94242.41;4874502;29;20615;-82
2023/11/28 06:05:20;;;;;;;0.60;0.60;;;;;;;4.95;84.92;94251.19;4867721;29;20046;-82
2023/11/28 06:07:49;;;;;;;0.52;0.50;;;;;;;4.93;84.62;94253.16;4867385;29;20092;-82
2023/11/28 06:10:19;;;;;;;1.60;0.60;;;;;;;4.92;84.96;94261.94;4883254;29;20113;-82
2023/11/28 06:12:46;;;;;;;0.70;0.70;;;;;;;4.91;84.93;94262.91;4881527;29;20136;-82
2023/11/28 06:15:14;;;;;;;0.93;0.45;;;;;;;4.88;85.08;94271.88;4873576;29;20546;-82
2023/11/28 06:17:42;;;;;;;1.00;0.47;;;;;;;4.89;84.89;94267.47;4862570;29;20070;-82
2023/11/28 06:20:14;;;;;;;0.68;0.45;;;;;;;4.86;84.79;94279.03;4857997;29;20058;-82
2023/11/28 06:22:43;;;;;;;0.75;0.40;;;;;;;4.83;84.61;94279.44;4875011;29;20041;-82
2023/11/28 06:25:11;;;;;;;0.47;0.47;;;;;;;4.81;85.40;94276.25;4868532;29;20045;-82
2023/11/28 06:27:43;;;;;;;0.68;0.50;;;;;;;4.81;85.40;94276.25;4880415;29;20065;-82
2023/11/28 06:30:12;;;;;;;;;;;;;;;4.82;85.21;94277.84;4919676;23;20061;-81
2023/11/28 06:32:40;;;;;;;0.85;0.57;;;;;;;4.77;84.46;94282.81;4867405;29;19920;-81
2023/11/28 06:35:10;;;;;;;1.00;0.93;;;;;;;4.75;85.13;94292.56;4857425;29;20066;-81
2023/11/28 06:37:39;;;;;;;1.40;1.30;;;;;;;4.74;85.29;94291.78;4856858;29;20066;-81
2023/11/28 06:40:07;;;;;;;2.78;1.60;;;;;;;4.70;85.03;94297.53;4854115;29;20034;-82
2023/11/28 06:42:35;;;;;;;2.10;1.50;;;;;;;4.69;84.52;94303.69;4860521;29;20058;-81
2023/11/28 06:48:09;;;;;;;1.80;1.60;;;;;;;4.69;85.40;94311.44;4918240;23;20126;-82
2023/11/28 06:58:38;;;;;;;1.57;1.40;;;;;;;4.70;86.00;94331.09;5846132;23;21104;-81
2023/11/28 07:01:07;;;;;;;3.53;1.40;;;;;;;4.69;85.80;94334.69;4875702;29;20069;-80
2023/11/28 07:03:36;;;;;;;1.50;1.40;;;;;;;4.68;86.49;94340.81;4877038;29;20045;-79
2023/11/28 07:06:05;;;;;;;1.20;1.10;;;;;;;4.67;86.48;94341.84;4882380;29;20056;-82
2023/11/28 07:08:34;;;;;;;1.33;1.02;;;;;;;4.64;86.22;94347.41;4871463;29;20054;-81
2023/11/28 07:11:02;;;;;;;1.10;0.80;;;;;;;4.63;86.02;94356.13;4871377;29;20148;-80
2023/11/28 07:13:31;;;;;;;1.00;1.00;;;;;;;4.62;85.57;94365.69;4882237;29;20038;-81
2023/11/28 07:15:59;;;;;;;0.80;0.77;;;;;;;4.59;85.48;94373.03;4879444;29;20026;-79
2023/11/28 07:18:28;;;;;;;0.60;0.60;;;;;;;4.51;85.19;94374.81;4868006;29;20034;-80
2023/11/28 07:20:56;;;;;;;0.85;0.60;;;;;;;4.49;85.14;94383.75;4872856;29;20034;-81
2023/11/28 07:23:25;;;;;;;0.75;0.75;;;;;;;4.45;84.88;94385.94;4880728;29;20062;-81
2023/11/28 07:25:53;;;;;;;0.57;0.52;;;;;;;4.43;84.82;94387.91;4870874;29;20030;-80
2023/11/28 07:28:21;;;;;;;1.23;1.13;;;;;;;4.40;85.13;94398.66;4880359;29;20061;-81
2023/11/28 07:30:49;;;;;;;0.70;0.70;;;;;;;4.41;85.22;94405.38;4882020;29;20127;-81
2023/11/28 07:33:18;;;;;;;0.50;0.50;;;;;;;4.39;84.80;94417.69;4868831;29;20049;-81
2023/11/28 07:35:47;;;;;;;0.50;0.50;;;;;;;4.37;84.62;94417.09;5176038;23;20035;-80
2023/11/28 07:38:15;;;;;;;0.95;0.45;;;;;;;4.30;83.66;94426.63;4884202;29;20050;-80
2023/11/28 07:40:43;;;;;;;1.00;1.00;;;;;;;4.25;83.43;94423.84;4872690;29;20054;-79
2023/11/28 07:43:11;;;;;;;0.68;0.68;;;;;;;4.17;83.10;94436.91;4863167;29;20038;-83
2023/11/28 07:45:40;;;;;;;1.00;0.95;;;;;;;4.08;82.67;94439.66;4860131;29;20042;-82
2023/11/28 07:48:09;;;;;;;1.00;1.00;;;;;;;4.05;82.44;94447.00;4864340;29;20050;-85
2023/11/28 07:50:38;;;;;;;1.00;0.90;;;;;;;3.96;81.79;94446.41;4849254;29;20097;-83
2023/11/28 07:53:08;;;;;;;0.95;0.85;;;;;;;3.93;82.34;94459.66;4859035;29;20042;-82
2023/11/28 07:55:36;;;;;;;1.02;1.02;;;;;;;3.91;82.19;94461.63;4863317;29;20071;-81
2023/11/28 07:58:12;;;;;;;1.75;1.05;;;;;;;3.85;82.01;94467.59;4867286;29;20038;-81
2023/11/28 08:00:40;;;;;;;1.38;1.27;;;;;;;3.84;82.64;94471.13;4853668;29;20049;-85
2023/11/28 08:03:09;;;;;;;2.00;1.90;;;;;;;3.86;82.28;94474.31;4850446;29;20080;-83
2023/11/28 08:05:37;;;;;;;2.42;1.73;;;;;;;3.86;82.90;94479.47;4857279;29;20034;-82
2023/11/28 08:08:06;;;;;;;1.50;1.40;;;;;;;3.89;83.44;94479.09;4848830;29;20098;-82
2023/11/28 08:10:34;;;;;;;1.50;1.33;;;;;;;3.90;82.71;94491.00;4854279;29;20065;-82
2023/11/28 08:13:02;;;;;;;1.83;1.73;;;;;;;3.88;83.30;94495.56;4854546;29;20037;-79
2023/11/28 08:15:30;;;;;;;0.98;0.98;;;;;;;3.88;83.59;94503.28;4866498;29;20030;-81
2023/11/28 08:17:59;;;;;;;1.00;0.90;;;;;;;3.83;82.75;94510.81;4867389;29;20063;-86
2023/11/28 08:20:28;;;;;;;2.13;1.08;;;;;;;3.80;82.54;94511.19;4865467;29;20037;-86
2023/11/28 08:23:00;;;;;;;1.08;1.00;;;;;;;3.78;82.68;94516.53;4862044;29;20055;-85
2023/11/28 08:25:33;;;;;;;1.70;1.60;;;;;;;3.73;82.33;94531.78;4849082;29;20064;-84
2023/11/28 08:28:02;;;;;;;1.48;1.10;;;;;;;3.71;82.62;94547.44;4866535;29;20098;-86
2023/11/28 08:30:31;;;;;;;0.80;0.80;;;;;;;3.66;82.15;94534.31;4866088;29;20070;-83
2023/11/28 08:33:01;;;;;;;1.40;1.27;;;;;;;3.63;82.34;94552.75;4867069;29;20086;-85
2023/11/28 08:35:31;;;;;;;3.63;2.22;;;;;;;3.60;82.63;94560.84;4852293;29;20038;-81
2023/11/28 08:37:58;;;;;;;4.03;2.60;;;;;;;3.57;82.56;94568.97;4863895;29;20065;-82
2023/11/28 08:40:26;;;;;;;5.00;3.05;;;;;;;3.50;82.38;94579.25;4866694;29;20079;-81
2023/11/28 08:42:56;;;;;;;3.65;2.60;;;;;;;3.47;82.44;94578.81;4866445;29;20063;-84
2023/11/28 08:45:24;;;;;;;5.28;2.30;;;;;;;3.47;83.41;94583.97;4864938;29;20052;-84
2023/11/28 08:47:51;;;;;;;1.25;1.08;;;;;;;3.44;81.88;94589.50;4866260;29;20049;-84
2023/11/28 08:50:22;;;;;;;3.78;2.42;;;;;;;3.37;82.36;94592.03;4854330;29;20041;-82
2023/11/28 08:52:50;;;;;;;3.03;2.30;;;;;;;3.36;82.71;94607.66;4848366;29;20118;-81
2023/11/28 08:55:18;;;;;;;2.92;1.90;;;;;;;3.33;82.84;94610.63;4848518;29;20050;-83
2023/11/28 08:57:46;;;;;;;4.07;1.20;;;;;;;3.25;82.77;94617.50;4848069;29;20062;-79
2023/11/28 09:00:16;;;;;;;0.88;0.88;;;;;;;3.23;83.64;94629.75;4848130;29;20054;-80
2023/11/28 09:02:45;;;;;;;0.80;0.80;;;;;;;3.22;83.48;94633.31;4844768;29;20067;-83
2023/11/28 10:15:20;;;;;;;0.37;0.37;;;;;;;2.66;83.49;94785.81;4654017;23;15126554;-85
2023/11/28 11:17:07;;;;;;;2.83;0.70;;;;;;;2.56;83.82;94900.31;1494761;23;20406;-81
2023/11/28 11:22:41;;;;;;;0.80;0.50;;;;;;;2.56;84.52;94916.56;4840791;29;20070;-79
2023/11/28 11:25:09;;;;;;;0.50;0.45;;;;;;;2.58;83.95;94922.34;4842860;29;20088;-79
2023/11/28 11:27:37;;;;;;;0.70;0.68;;;;;;;2.61;84.29;94934.06;4842466;29;20073;-79
2023/11/28 11:30:05;;;;;;;0.50;0.50;;;;;;;2.59;83.24;94936.00;4842703;29;20137;-79
2023/11/28 11:32:34;;;;;;;0.30;0.30;;;;;;;2.58;83.44;94944.69;4842682;29;20539;-79
2023/11/28 11:35:04;;;;;;;0.50;0.38;;;;;;;2.57;83.26;94948.25;4843968;29;20060;-79
2023/11/28 11:37:33;;;;;;;0.43;0.43;;;;;;;2.56;82.64;94946.63;4843736;29;20078;-79
2023/11/28 11:40:03;;;;;;;0.60;0.60;;;;;;;2.54;82.95;94959.69;4843616;29;20058;-79
2023/11/28 11:42:33;;;;;;;0.52;0.52;;;;;;;2.55;82.78;94968.22;4841509;29;20145;-79
2023/11/28 11:45:02;;;;;;;0.65;0.63;;;;;;;2.54;82.72;94974.34;4843201;29;20054;-78
2023/11/28 11:47:32;;;;;;;0.68;0.57;;;;;;;2.52;82.08;94981.44;4842767;29;20057;-78
2023/11/28 11:50:03;;;;;;;0.95;0.90;;;;;;;2.53;83.50;94983.03;4843170;29;20061;-78
2023/11/28 11:52:32;;;;;;;1.75;0.55;;;;;;;2.56;83.96;94987.81;4840768;29;20123;-79
2023/11/28 11:55:06;;;;;;;0.70;0.60;;;;;;;2.58;83.40;94996.19;4826239;29;20145;-79
2023/11/28 11:57:34;;;;;;;1.50;0.80;;;;;;;2.57;83.57;94999.72;4824798;29;20082;-80
2023/11/28 12:00:04;;;;;;;1.42;0.68;;;;;;;2.53;82.77;95001.03;4838035;29;20508;-81
2023/11/28 12:02:51;;;;;;;0.70;0.70;;;;;;;2.47;83.10;95011.06;4826836;29;20058;-81
2023/11/28 12:05:31;;;;;;;0.70;0.70;;;;;;;2.44;83.58;95023.47;4826440;29;20062;-82
2023/11/28 12:08:01;;;;;;;0.90;0.90;;;;;;;2.41;83.00;95032.31;4825374;29;20062;-81
2023/11/28 12:10:31;;;;;;;0.70;0.70;;;;;;;2.37;82.73;95025.91;4828636;29;20484;-80
2023/11/28 12:13:02;;;;;;;1.70;1.27;;;;;;;2.35;83.17;95030.44;4838043;29;20076;-79
2023/11/28 12:15:31;;;;;;;1.02;1.00;;;;;;;2.36;83.06;95038.94;4838930;29;20557;-80
2023/11/28 12:18:08;;;;;;;2.08;1.02;;;;;;;2.38;83.59;95052.44;4824996;29;20054;-80
2023/11/28 12:20:36;;;;;;;2.15;1.30;;;;;;;2.38;83.56;95057.59;4824784;29;20085;-79
2023/11/28 12:23:09;;;;;;;1.40;1.30;;;;;;;2.34;83.81;95059.72;4825501;29;20101;-80
2023/11/28 12:25:38;;;;;;;1.00;1.00;;;;;;;2.31;83.23;95067.75;4832481;29;20052;-80
2023/11/28 12:28:06;;;;;;;1.30;1.23;;;;;;;2.31;83.27;95077.25;4835210;29;20133;-79
2023/11/28 12:30:34;;;;;;;1.17;1.17;;;;;;;2.30;83.76;95081.59;4825519;29;20058;-79
2023/11/28 12:33:01;;;;;;;1.48;1.05;;;;;;;2.30;82.72;95093.66;4827715;29;20493;-80
2023/11/28 12:35:29;;;;;;;2.47;1.38;;;;;;;2.29;82.96;95098.00;4831528;29;20070;-80
2023/11/28 12:37:57;;;;;;;1.10;1.10;;;;;;;2.30;83.02;95112.47;4828190;29;20047;-80
2023/11/28 12:40:25;;;;;;;1.52;1.42;;;;;;;2.28;82.52;95111.84;4830155;29;20066;-81
2023/11/28 12:42:58;;;;;;;2.65;1.67;;;;;;;2.28;83.42;95113.63;4838470;29;20576;-80
2023/11/28 12:45:27;;;;;;;2.30;2.10;;;;;;;2.31;84.11;95124.34;4842623;29;20107;-80
2023/11/28 12:47:54;;;;;;;1.80;1.70;;;;;;;2.34;83.78;95124.03;4837284;29;20149;-79
2023/11/28 12:50:24;;;;;;;1.50;1.40;;;;;;;2.35;82.84;95135.13;4824606;29;20054;-79
2023/11/28 12:52:52;;;;;;;1.75;1.65;;;;;;;2.31;82.21;95139.00;4825074;29;20046;-80
2023/11/28 12:55:23;;;;;;;2.67;2.47;;;;;;;2.26;82.23;95142.06;4842346;29;20083;-80
2023/11/28 12:57:51;;;;;;;2.45;2.25;;;;;;;2.24;82.07;95144.81;4839945;29;20061;-80
2023/11/28 13:00:22;;;;;;;2.33;2.13;;;;;;;2.18;82.04;95142.09;4832988;29;20082;-80
2023/11/28 13:02:50;;;;;;;2.70;2.15;;;;;;;2.17;82.60;95153.38;4830667;29;20062;-79
2023/11/28 13:24:18;;;;;;;3.90;3.35;;;;;;;2.11;84.69;95200.31;4652861;30;20088;-81
2023/11/28 13:27:20;;;;;;;4.53;3.30;;;;;;;2.14;84.28;95216.22;4685727;30;20070;-81
2023/11/28 13:29:53;;;;;;;3.22;2.92;;;;;;;2.14;84.78;95216.22;4715556;30;20069;-81
2023/11/28 13:32:31;;;;;;;2.53;2.33;;;;;;;2.05;82.51;95225.72;4721433;30;20053;-80
2023/11/28 13:35:06;;;;;;;2.55;2.35;;;;;;;2.01;82.67;95226.19;4717484;30;20102;-81
2023/11/28 13:37:42;;;;;;;2.65;2.45;;;;;;;1.97;81.77;95235.22;4716844;30;20148;-80
2023/11/28 13:43:25;;;;;;;2.72;2.53;;;;;;;1.93;83.04;95257.88;4716048;30;19926;-81
2023/11/28 13:45:57;;;;;;;2.67;2.47;;;;;;;1.95;83.16;95253.38;4765716;29;20050;-81
2023/11/28 13:48:50;;;;;;;3.22;2.92;;;;;;;1.94;82.40;95256.91;4843108;29;20110;-81
2023/11/28 13:51:47;;;;;;;2.42;2.28;;;;;;;1.91;82.28;95267.53;4843265;29;20058;-81
2023/11/28 13:54:45;;;;;;;3.30;3.00;;;;;;;1.91;83.22;95267.53;4828744;29;20144;-81
2023/11/28 13:57:21;;;;;;;3.63;3.22;;;;;;;1.93;83.71;95264.81;4842837;29;20076;-81
2023/11/28 13:59:59;;;;;;;3.25;2.80;;;;;;;1.92;83.20;95276.03;4842561;29;20058;-81
2023/11/28 14:03:08;;;;;;;3.30;3.03;;;;;;;1.91;84.77;95288.09;4842599;29;20081;-81
2023/11/28 14:09:42;;;;;;;2.85;2.55;;;;;;;1.88;82.53;95296.13;4810407;29;20045;-80
2023/11/28 14:12:09;;;;;;;3.05;2.80;;;;;;;1.83;82.19;95303.50;4824957;29;20141;-79
2023/11/28 14:14:37;;;;;;;3.00;2.80;;;;;;;1.83;83.08;95306.06;4838274;29;20057;-79
2023/11/28 14:17:21;;;;;;;3.83;3.53;;;;;;;1.86;84.25;95316.06;4836095;29;20058;-75
2023/11/28 14:19:49;;;;;;;2.50;2.30;;;;;;;1.84;82.82;95318.78;4840732;29;20061;-79
2023/11/28 14:22:17;;;;;;;2.90;2.60;;;;;;;1.81;82.27;95318.28;4840058;29;20049;-79
2023/11/28 14:24:44;;;;;;;3.33;2.38;;;;;;;1.83;82.22;95318.94;4838898;29;20061;-79
2023/11/28 14:27:12;;;;;;;2.85;2.65;;;;;;;1.82;81.63;95330.19;4840832;29;20079;-79
2023/11/28 14:29:40;;;;;;;3.40;3.10;;;;;;;1.85;83.28;95330.66;4830127;29;20054;-79
2023/11/28 14:32:07;;;;;;;3.20;2.90;;;;;;;1.89;83.26;95326.03;4830928;29;20055;-79
2023/11/28 14:34:36;;;;;;;3.25;2.95;;;;;;;1.87;82.56;95335.66;4838896;29;20050;-80
2023/11/28 14:37:04;;;;;;;5.07;3.80;;;;;;;1.85;82.78;95337.59;4833248;29;20701;-80
2023/11/28 14:39:31;;;;;;;3.50;3.20;;;;;;;1.85;82.60;95340.16;4845645;29;20056;-80
2023/11/28 14:42:00;;;;;;;4.22;3.83;;;;;;;1.84;82.85;95349.63;4845585;29;20056;-79